FIMPFMEP

Guest
Details From FIMP - SIR SEEWOOSAGUR RAMGOOLAM INTL
To FMEP - ST PIERRE PIERREFONDS
Flight Number -
Tags generated
Created
Modified
Stats Distance 138 nm / 255 km
Max Altitude 12,300 ft / 3,749 m
Waypoints 3
Social Downloads 2
Likes 0
Share VATSIM

Download

Looking for another format? Having issues loading an existing format? Contact us
Advertisement - Login to hide

Notes

Basic altitude profile: - Ascent Rate: 900ft/min - Ascent Speed: 270kts - Cruise Altitude: 150ft - Cruise Speed: 315kts - Descent Rate: 1500ft/min - Descent Speed: 220kts Options: - Use NATs: yes - Use PACOTS: yes - Use low airways: yes - Use high airways: yes

Route

FIMP PASAR FMEP

ID Type Via Altitude Latitude Longitude Leg Dist Tot Dist Heading (true) Name
O FIMP APT - 0 ft / 0 m -20.43023˚ 57.68360˚ - 0 nm - SIR SEEWOOSAGUR RAMGOOLAM INTL
PASAR FIX - 12,300 ft / 3,749 m -21.01800˚ 56.39944˚ 80 nm 80 nm 244° / 244° -
O FMEP APT - 0 ft / 0 m -21.32004˚ 55.42358˚ 57 nm 137 nm 251° / 252° ST PIERRE PIERREFONDS

Altitude Profile

Advertisement - Login to hide

FIMP

Details ICAO FIMP (MRU)
Name SIR SEEWOOSAGUR RAMGOOLAM INTL
Region Mauritius
Timezone Indian/Mauritius (UTC+4.0)
Stats Elevation 186 ft / 57 m (AMSL)
Location -20.430235° 57.683602°
Runways 1
Magnetic Variation 18.389° W

METAR

FIMP 231900Z 10012KT 9999 SCT017 24/17 Q1022

Decode

TAF

TAF FIMP 231700Z 2318/2500 11015G30KT 9999 SCT016 TEMPO 2318/2406 7000 -SHRA FEW010 SCT015 BKN050 PROB30 TEMPO 2415/2500 5000 SHRA FEW007 BKN014 BKN045

Decode

Departure Runways

ID Width Length Bearing (true) Bearing (mag) Surface Threshold Offset Overrun Length
14 148 ft / 45 m 11,037 ft / 3,364 m 117.22° 135.61° Asphalt 1,082 ft / 330 m 200 ft / 61 m
32 148 ft / 45 m 11,037 ft / 3,364 m 297.21° 315.60° Asphalt 0 ft / 0 m 0 ft / 0 m

FMEP

Details ICAO FMEP (ZSE)
Name ST PIERRE PIERREFONDS
Region Comoros, Mayotte, Réunion and Madagascar
Timezone Unknown (UTC+0.0)
Stats Elevation 56 ft / 17 m (AMSL)
Location -21.320039° 55.423581°
Runways 1
Magnetic Variation 19.517° W

METAR

FMEP 231900Z AUTO 12018KT 9999 FEW056 24/16 Q1021

Decode

TAF

Not found

Destination Runways

ID Width Length Bearing (true) Bearing (mag) Surface Threshold Offset Overrun Length
15 98 ft / 30 m 6,125 ft / 1,867 m 129.02° 148.54° Asphalt 0 ft / 0 m 0 ft / 0 m
33 98 ft / 30 m 6,125 ft / 1,867 m 309.01° 328.53° Asphalt 0 ft / 0 m 0 ft / 0 m

Popular Alternatives